Time;durP1;ratioP1;P1;durP2;ratioP2;P2;SDS_P1;SDS_P2;PMS_P1;PMS_P2;Temp;Humidity;BMP_temperature;BMP_pressure;BME280_temperature;BME280_humidity;BME280_pressure;Samples;Min_cycle;Max_cycle;Signal;HPM_P1;HPM_P2
2023/03/31 00:00:13;;;;;;;5.10;1.50;;;;;;;11.16;86.00;97528.09;5072348;28;20581;-76
2023/03/31 00:02:41;;;;;;;4.93;1.60;;;;;;;11.18;86.11;97526.19;5072735;28;20302;-76
2023/03/31 00:05:08;;;;;;;2.80;1.57;;;;;;;11.21;85.38;97524.13;5072831;28;20208;-76
2023/03/31 00:07:36;;;;;;;3.53;1.47;;;;;;;11.22;85.46;97512.59;5072751;28;20207;-76
2023/03/31 00:10:04;;;;;;;3.47;1.53;;;;;;;11.22;85.04;97504.66;5072135;28;20211;-76
2023/03/31 00:12:32;;;;;;;5.40;1.63;;;;;;;11.20;85.18;97508.38;5072562;28;20241;-76
2023/03/31 00:14:59;;;;;;;5.33;1.30;;;;;;;11.20;85.25;97509.19;5072788;28;20207;-76
2023/03/31 00:17:25;;;;;;;2.57;1.60;;;;;;;11.15;85.46;97499.97;5072510;28;20227;-76
2023/03/31 00:19:52;;;;;;;3.87;1.67;;;;;;;11.14;85.88;97504.41;5072122;28;20214;-76
2023/03/31 00:22:21;;;;;;;6.87;2.00;;;;;;;11.10;86.07;97497.72;5072537;28;20223;-76
2023/03/31 00:24:47;;;;;;;4.27;1.50;;;;;;;11.09;86.17;97489.91;5072874;28;20264;-76
2023/03/31 00:27:14;;;;;;;3.97;1.70;;;;;;;11.07;86.58;97489.19;5072237;28;20214;-76
2023/03/31 00:29:42;;;;;;;5.50;1.70;;;;;;;11.09;86.39;97488.09;5072074;28;20245;-76
2023/03/31 00:32:09;;;;;;;3.00;1.50;;;;;;;11.10;86.53;97481.00;5072251;28;20284;-76
2023/03/31 00:34:36;;;;;;;6.03;1.80;;;;;;;11.09;86.43;97482.81;5072365;28;20294;-76
2023/03/31 00:37:02;;;;;;;3.90;1.50;;;;;;;11.09;86.75;97474.88;5072309;28;20227;-76
2023/03/31 00:39:32;;;;;;;6.70;1.87;;;;;;;11.10;86.70;97471.25;5071968;28;20230;-76
2023/03/31 00:41:59;;;;;;;3.40;1.60;;;;;;;11.09;87.63;97474.03;5071979;28;20796;-76
2023/03/31 00:44:29;;;;;;;3.27;1.50;;;;;;;11.00;87.92;97466.84;5072186;28;20212;-76
2023/03/31 00:47:01;;;;;;;4.17;1.70;;;;;;;10.99;88.32;97459.88;5072323;28;20203;-76
2023/03/31 00:49:31;;;;;;;6.63;1.90;;;;;;;10.96;88.75;97452.19;5071918;28;20298;-76
2023/03/31 00:52:04;;;;;;;3.07;1.90;;;;;;;10.94;88.39;97452.31;5071977;28;20231;-76
2023/03/31 00:54:32;;;;;;;3.30;1.43;;;;;;;10.93;88.72;97448.00;5072157;28;20234;-76
2023/03/31 00:57:02;;;;;;;3.17;1.60;;;;;;;10.92;88.37;97443.69;5071764;28;20234;-76
2023/03/31 00:59:31;;;;;;;3.40;1.70;;;;;;;10.90;88.18;97444.75;5070376;28;20244;-76
2023/03/31 01:02:01;;;;;;;2.70;1.47;;;;;;;10.97;88.25;97448.59;5068753;28;20231;-76
2023/03/31 01:04:31;;;;;;;5.77;1.53;;;;;;;11.03;87.18;97448.94;5070842;28;20214;-76
2023/03/31 01:07:04;;;;;;;3.83;1.50;;;;;;;11.07;86.96;97438.94;5071824;28;20210;-76
2023/03/31 01:09:33;;;;;;;3.17;1.83;;;;;;;11.16;86.43;97438.16;5071640;28;20203;-76
2023/03/31 01:12:02;;;;;;;5.43;1.57;;;;;;;11.20;86.09;97429.03;5071412;28;20234;-76
2023/03/31 01:14:30;;;;;;;5.10;1.77;;;;;;;11.17;86.41;97427.47;5071920;28;20230;-76
2023/03/31 01:16:56;;;;;;;4.00;2.17;;;;;;;11.20;86.46;97426.38;5071397;28;20235;-76
2023/03/31 01:19:35;;;;;;;5.50;1.93;;;;;;;11.21;86.52;97414.84;5071103;28;20215;-76
2023/03/31 01:22:36;;;;;;;3.77;1.60;;;;;;;11.20;85.35;97407.88;5071697;28;20608;-75
2023/03/31 01:25:42;;;;;;;3.77;1.70;;;;;;;11.23;85.34;97400.53;5068992;28;20211;-78
2023/03/31 01:28:25;;;;;;;6.80;1.90;;;;;;;11.25;84.89;97385.34;5037389;28;20212;-75
2023/03/31 01:31:34;;;;;;;6.70;2.07;;;;;;;11.23;85.19;97381.16;5070993;28;20207;-75
2023/03/31 01:34:35;;;;;;;4.87;1.60;;;;;;;11.27;84.76;97374.66;5071419;28;20300;-76
2023/03/31 01:37:32;;;;;;;3.80;1.50;;;;;;;11.28;84.29;97374.53;5071139;28;20246;-77
2023/03/31 01:40:33;;;;;;;5.83;1.93;;;;;;;11.28;84.69;97373.69;5070686;28;20213;-77
2023/03/31 01:43:07;;;;;;;5.80;2.00;;;;;;;11.31;83.10;97374.25;5067706;28;20244;-77
2023/03/31 01:45:47;;;;;;;5.10;1.80;;;;;;;11.34;82.58;97363.44;5071289;28;20202;-77
2023/03/31 01:48:17;;;;;;;2.93;1.43;;;;;;;11.39;81.50;97366.53;5071170;28;20264;-75
2023/03/31 01:50:47;;;;;;;3.40;1.53;;;;;;;11.45;81.41;97367.81;5070697;28;20211;-77
2023/03/31 01:53:21;;;;;;;3.13;1.50;;;;;;;11.49;80.85;97363.94;5074535;28;20237;-77
2023/03/31 01:55:55;;;;;;;5.23;1.53;;;;;;;11.51;80.68;97364.66;5075266;28;20203;-75
2023/03/31 01:58:27;;;;;;;4.90;1.90;;;;;;;11.60;78.46;97363.88;5075580;28;20233;-75
2023/03/31 02:01:00;;;;;;;4.37;2.03;;;;;;;11.70;77.30;97355.06;5074872;28;20229;-77
2023/03/31 02:03:33;;;;;;;3.70;1.30;;;;;;;11.87;74.80;97353.59;5075352;28;20609;-75
2023/03/31 02:06:07;;;;;;;3.27;1.60;;;;;;;11.91;73.86;97358.47;5075166;28;20206;-76
2023/03/31 02:08:40;;;;;;;4.23;1.73;;;;;;;11.97;73.31;97351.81;5075111;28;20267;-76
2023/03/31 02:11:07;;;;;;;5.13;1.20;;;;;;;11.96;73.14;97355.44;5074513;28;20672;-76
2023/03/31 02:13:40;;;;;;;3.93;1.20;;;;;;;11.94;73.49;97352.94;5075149;28;20215;-75
2023/03/31 02:16:11;;;;;;;4.13;1.40;;;;;;;11.99;71.78;97337.47;5075094;28;20217;-75
2023/03/31 02:18:40;;;;;;;3.53;1.37;;;;;;;11.97;72.83;97334.13;5074867;28;20272;-75
2023/03/31 02:21:08;;;;;;;3.27;1.23;;;;;;;11.91;73.84;97336.44;5074470;28;20280;-76
2023/03/31 02:23:38;;;;;;;3.40;1.30;;;;;;;11.88;75.41;97342.88;5074631;28;20237;-76
2023/03/31 02:26:09;;;;;;;4.43;1.43;;;;;;;11.79;78.37;97353.41;5075167;28;20207;-76
2023/03/31 02:28:37;;;;;;;2.33;1.37;;;;;;;11.74;79.58;97352.97;5074847;28;20199;-76
2023/03/31 02:31:13;;;;;;;4.97;1.70;;;;;;;11.65;82.25;97356.41;5074317;28;20207;-77
2023/03/31 02:33:40;;;;;;;3.30;1.50;;;;;;;11.49;83.43;97361.31;5074672;28;20215;-76
2023/03/31 02:36:07;;;;;;;2.57;1.33;;;;;;;11.39;85.30;97355.09;5074338;28;20236;-76
2023/03/31 02:38:37;;;;;;;3.73;1.60;;;;;;;11.30;87.65;97362.00;5074271;28;20230;-76
2023/03/31 02:41:04;;;;;;;6.47;1.50;;;;;;;11.25;88.55;97348.31;5073862;28;20203;-76
2023/03/31 02:43:30;;;;;;;3.07;1.63;;;;;;;11.23;89.16;97339.69;5074036;28;20222;-76
2023/03/31 02:45:58;;;;;;;2.97;1.57;;;;;;;11.23;89.53;97322.97;5074162;28;20211;-76
2023/03/31 02:48:28;;;;;;;4.27;2.13;;;;;;;11.21;89.97;97304.59;5073937;28;20551;-76
2023/03/31 02:51:07;;;;;;;3.30;1.80;;;;;;;11.20;89.91;97297.63;5073737;28;20210;-76
2023/03/31 02:53:43;;;;;;;5.70;1.77;;;;;;;11.22;89.67;97289.56;5074323;28;20277;-76
2023/03/31 02:56:26;;;;;;;3.90;1.50;;;;;;;11.17;90.50;97282.03;5074051;28;20211;-76
2023/03/31 02:59:08;;;;;;;2.53;1.47;;;;;;;11.14;90.40;97276.16;5073969;28;20231;-76
2023/03/31 03:01:48;;;;;;;3.87;1.90;;;;;;;11.17;90.76;97275.88;5073971;28;20661;-76
2023/03/31 03:04:36;;;;;;;5.00;1.60;;;;;;;11.12;91.72;97259.59;5073974;28;20222;-76
2023/03/31 03:07:08;;;;;;;3.13;1.50;;;;;;;11.09;92.57;97254.53;5073980;28;20203;-76
2023/03/31 03:09:45;;;;;;;3.13;1.67;;;;;;;11.08;93.01;97258.16;5073465;28;20258;-76
2023/03/31 03:12:17;;;;;;;6.07;1.70;;;;;;;11.02;93.00;97242.81;5073920;28;20295;-76
2023/03/31 03:14:49;;;;;;;4.33;1.60;;;;;;;11.00;93.50;97237.66;5074118;28;20211;-76
2023/03/31 03:17:24;;;;;;;5.80;2.00;;;;;;;11.00;93.72;97221.78;5073830;28;20301;-76
2023/03/31 03:19:54;;;;;;;4.83;1.70;;;;;;;10.99;93.51;97211.34;5073618;28;20205;-76
2023/03/31 03:22:21;;;;;;;4.17;1.93;;;;;;;10.94;94.03;97205.63;5073751;28;20326;-76
2023/03/31 03:24:48;;;;;;;3.87;1.50;;;;;;;10.91;94.36;97190.00;5073926;28;20214;-76
2023/03/31 03:27:14;;;;;;;4.03;1.70;;;;;;;10.89;94.07;97176.91;5073736;28;20651;-76
2023/03/31 03:29:41;;;;;;;3.00;1.70;;;;;;;10.79;94.38;97180.47;5073069;28;20219;-76
2023/03/31 03:32:09;;;;;;;6.03;2.10;;;;;;;10.70;95.14;97170.72;5073654;28;20262;-76
2023/03/31 03:34:37;;;;;;;3.70;1.70;;;;;;;10.61;95.76;97169.69;5073605;28;20298;-76
2023/03/31 03:37:04;;;;;;;3.70;1.67;;;;;;;10.57;96.80;97164.75;5073428;28;20238;-76
2023/03/31 03:39:31;;;;;;;2.47;1.70;;;;;;;10.47;97.33;97166.53;5073110;28;20300;-76
2023/03/31 03:41:57;;;;;;;4.77;1.93;;;;;;;10.46;97.60;97157.75;5073449;28;20618;-76
2023/03/31 03:44:24;;;;;;;4.03;1.97;;;;;;;10.47;97.87;97153.31;5073508;28;20214;-76
2023/03/31 03:46:50;;;;;;;3.10;1.90;;;;;;;10.51;97.47;97144.16;5073726;28;20211;-76
2023/03/31 03:49:17;;;;;;;6.57;2.17;;;;;;;10.53;97.09;97143.03;5072705;28;20213;-76
2023/03/31 03:51:45;;;;;;;3.47;2.03;;;;;;;10.57;96.92;97140.97;5073158;28;20248;-77
2023/03/31 03:54:11;;;;;;;3.80;1.87;;;;;;;10.59;96.92;97134.59;5073513;28;20217;-75
2023/03/31 03:56:38;;;;;;;5.03;2.37;;;;;;;10.64;97.11;97123.66;5073386;28;20203;-75
2023/03/31 03:59:05;;;;;;;3.73;1.80;;;;;;;10.68;96.72;97109.19;5072925;28;20265;-76
2023/03/31 04:01:31;;;;;;;4.80;2.37;;;;;;;10.63;97.07;97103.47;5072815;28;20658;-76
2023/03/31 04:03:58;;;;;;;4.50;1.80;;;;;;;10.63;97.58;97085.81;5073361;28;20220;-76
2023/03/31 04:06:24;;;;;;;6.00;2.00;;;;;;;10.65;97.36;97083.06;5072739;28;20219;-76
2023/03/31 04:08:52;;;;;;;5.23;2.30;;;;;;;10.59;97.55;97086.22;5072985;28;20210;-76
2023/03/31 04:11:19;;;;;;;3.03;2.00;;;;;;;10.49;97.82;97072.13;5073085;28;20222;-76
2023/03/31 04:13:46;;;;;;;3.57;2.07;;;;;;;10.40;98.39;97068.44;5073141;28;20588;-76
2023/03/31 04:16:15;;;;;;;4.43;2.20;;;;;;;10.27;98.83;97059.09;5072395;28;20211;-76
2023/03/31 04:18:42;;;;;;;4.40;2.20;;;;;;;10.19;98.65;97054.44;5072139;28;20235;-76
2023/03/31 04:21:11;;;;;;;4.30;2.00;;;;;;;10.06;99.84;97052.97;5072544;28;20255;-76
2023/03/31 04:23:41;;;;;;;6.87;2.60;;;;;;;9.96;100.00;97052.00;5072489;28;20239;-76
2023/03/31 04:26:09;;;;;;;4.80;2.03;;;;;;;9.89;100.00;97045.56;5072567;28;20264;-75
2023/03/31 04:28:35;;;;;;;6.90;2.60;;;;;;;9.91;100.00;97047.13;5072156;28;20667;-75
2023/03/31 04:31:05;;;;;;;6.33;2.80;;;;;;;9.93;100.00;97047.00;5071680;28;20325;-75
2023/03/31 04:33:32;;;;;;;3.53;2.30;;;;;;;9.99;100.00;97043.84;5072037;28;20208;-75
2023/03/31 04:36:05;;;;;;;5.53;2.60;;;;;;;10.03;100.00;97037.34;5072047;28;20258;-75
2023/03/31 04:38:32;;;;;;;5.27;2.63;;;;;;;10.07;100.00;97038.78;5072106;28;20229;-76
2023/03/31 04:40:59;;;;;;;4.63;2.80;;;;;;;10.13;100.00;97033.00;5071662;28;20210;-76
2023/03/31 04:43:27;;;;;;;4.13;2.67;;;;;;;10.19;100.00;97035.97;5071868;28;20725;-76
2023/03/31 04:45:54;;;;;;;5.13;2.80;;;;;;;10.24;100.00;97025.84;5072037;28;20205;-77
2023/03/31 04:48:20;;;;;;;6.00;2.77;;;;;;;10.25;100.00;97027.53;5071564;28;20203;-75
2023/03/31 04:50:47;;;;;;;5.33;2.57;;;;;;;10.26;100.00;97007.22;5071303;28;20209;-75
2023/03/31 04:53:13;;;;;;;5.53;2.80;;;;;;;10.29;100.00;96996.41;5071782;28;20578;-75
2023/03/31 04:55:40;;;;;;;5.90;3.27;;;;;;;10.29;100.00;96997.22;5071451;28;20214;-75
2023/03/31 04:58:06;;;;;;;6.07;2.97;;;;;;;10.30;100.00;96995.44;5071924;28;20577;-75
2023/03/31 05:00:34;;;;;;;7.60;2.83;;;;;;;10.32;100.00;97009.31;5071384;28;20214;-76
2023/03/31 05:03:01;;;;;;;5.40;2.50;;;;;;;10.33;100.00;96988.06;5071718;28;20239;-76
2023/03/31 05:05:27;;;;;;;6.30;3.23;;;;;;;10.43;100.00;97006.59;5071508;28;20209;-76
2023/03/31 05:07:55;;;;;;;5.60;2.33;;;;;;;10.36;100.00;97008.09;5071329;28;20211;-76
2023/03/31 05:10:22;;;;;;;4.60;2.87;;;;;;;10.36;100.00;97008.97;5071421;28;20262;-76
2023/03/31 05:12:48;;;;;;;6.20;2.53;;;;;;;10.38;100.00;97006.16;5071652;28;20229;-76
2023/03/31 05:15:15;;;;;;;5.20;2.63;;;;;;;10.40;100.00;97009.53;5072026;28;20260;-76
2023/03/31 05:17:43;;;;;;;5.00;3.10;;;;;;;10.42;100.00;97026.91;5071609;28;20266;-77
2023/03/31 05:20:12;;;;;;;5.67;2.67;;;;;;;10.35;100.00;97041.59;5071891;28;20245;-77
2023/03/31 05:22:39;;;;;;;4.23;2.63;;;;;;;10.30;100.00;97050.88;5072050;28;20350;-77
2023/03/31 05:25:08;;;;;;;5.63;3.10;;;;;;;10.18;100.00;97054.56;5071673;28;20680;-77
2023/03/31 05:27:35;;;;;;;9.47;3.27;;;;;;;10.10;100.00;97062.31;5070860;28;20215;-77
2023/03/31 05:30:02;;;;;;;7.93;4.03;;;;;;;10.00;100.00;97082.47;5071541;28;20216;-77
2023/03/31 05:32:28;;;;;;;10.23;3.80;;;;;;;9.98;100.00;97076.50;5071433;28;20241;-77
2023/03/31 05:34:56;;;;;;;7.97;3.80;;;;;;;9.88;100.00;97062.38;5071690;28;20217;-77
2023/03/31 05:37:24;;;;;;;6.97;3.77;;;;;;;9.81;100.00;97063.84;5071437;28;20674;-77
2023/03/31 05:39:51;;;;;;;8.53;4.30;;;;;;;9.82;100.00;97061.09;5070817;28;20624;-77
2023/03/31 05:42:18;;;;;;;7.40;3.50;;;;;;;9.74;100.00;97049.50;5086836;22;20236;-76
2023/03/31 05:44:45;;;;;;;8.97;4.37;;;;;;;9.71;100.00;97053.22;5071347;28;20212;-75
2023/03/31 05:47:12;;;;;;;6.37;3.70;;;;;;;9.68;100.00;97052.66;5071215;28;20227;-75
2023/03/31 05:49:38;;;;;;;6.77;3.73;;;;;;;9.62;100.00;97032.06;5070958;28;20215;-75
2023/03/31 05:52:06;;;;;;;5.70;3.70;;;;;;;9.60;100.00;97039.25;5071151;28;20744;-75
2023/03/31 05:54:33;;;;;;;8.33;4.13;;;;;;;9.59;100.00;97029.66;5071151;28;20207;-75
2023/03/31 05:57:00;;;;;;;8.37;4.23;;;;;;;9.54;100.00;97023.94;5071354;28;20225;-75
2023/03/31 05:59:27;;;;;;;8.13;4.07;;;;;;;9.47;100.00;97006.94;5070876;28;20231;-75
2023/03/31 06:01:53;;;;;;;8.27;3.90;;;;;;;9.46;100.00;96999.97;5071198;28;20234;-75
2023/03/31 06:04:20;;;;;;;8.63;4.10;;;;;;;9.42;100.00;96990.66;5071161;28;20269;-75
2023/03/31 06:06:49;;;;;;;8.30;4.33;;;;;;;9.41;100.00;96978.41;5070934;28;20654;-76
2023/03/31 06:09:17;;;;;;;5.93;3.97;;;;;;;9.40;100.00;96974.13;5070747;28;20203;-76
2023/03/31 06:11:43;;;;;;;5.00;4.00;;;;;;;9.37;100.00;96969.13;5070917;28;20211;-76
2023/03/31 06:14:10;;;;;;;7.33;3.67;;;;;;;9.38;100.00;96962.88;5071019;28;20294;-75
2023/03/31 06:16:37;;;;;;;7.23;3.80;;;;;;;9.37;100.00;96969.94;5070942;28;20204;-76
2023/03/31 06:19:03;;;;;;;7.87;4.53;;;;;;;9.38;100.00;96961.09;5070680;28;20713;-76
2023/03/31 06:21:29;;;;;;;6.57;4.07;;;;;;;9.38;100.00;96949.69;5070973;28;20210;-76
2023/03/31 06:23:57;;;;;;;6.33;4.47;;;;;;;9.38;100.00;96950.53;5071068;28;20211;-75
2023/03/31 06:26:24;;;;;;;8.30;4.73;;;;;;;9.46;100.00;96947.25;5071114;28;20264;-76
2023/03/31 06:28:51;;;;;;;8.90;5.30;;;;;;;9.46;100.00;96936.69;5071064;28;20566;-75
2023/03/31 06:31:20;;;;;;;6.50;4.33;;;;;;;9.42;100.00;96936.09;5070646;28;20203;-75
2023/03/31 06:33:48;;;;;;;9.00;5.00;;;;;;;9.39;100.00;96925.00;5070529;28;20230;-75
2023/03/31 06:36:16;;;;;;;8.23;4.40;;;;;;;9.39;100.00;96941.66;5070529;28;20214;-74
2023/03/31 06:38:43;;;;;;;8.47;4.83;;;;;;;9.40;100.00;96932.78;5072711;28;20243;-75
2023/03/31 06:41:12;;;;;;;10.43;5.23;;;;;;;9.43;100.00;96929.06;5074237;28;20210;-75
2023/03/31 06:43:40;;;;;;;10.60;5.27;;;;;;;9.45;100.00;96924.47;5074345;28;20329;-75
2023/03/31 06:46:07;;;;;;;6.57;5.87;;;;;;;9.42;100.00;96925.56;5074410;28;20204;-74
2023/03/31 06:48:38;;;;;;;11.93;5.83;;;;;;;9.47;100.00;96933.09;5073851;28;20239;-76
2023/03/31 06:51:07;;;;;;;13.13;6.80;;;;;;;9.43;100.00;96929.88;5071256;28;20212;-75
2023/03/31 06:53:34;;;;;;;13.27;6.80;;;;;;;9.39;100.00;96941.66;5073513;28;20227;-75
2023/03/31 06:56:01;;;;;;;13.73;7.30;;;;;;;9.43;100.00;96947.50;5074073;28;20210;-76
2023/03/31 06:58:27;;;;;;;11.93;7.30;;;;;;;9.43;100.00;96963.34;5073820;28;20234;-77
2023/03/31 07:00:55;;;;;;;13.80;7.27;;;;;;;9.43;100.00;96973.88;5073668;28;20216;-77
2023/03/31 07:03:23;;;;;;;11.73;6.97;;;;;;;9.46;100.00;96978.88;5074231;28;20234;-76
2023/03/31 07:05:50;;;;;;;9.37;6.67;;;;;;;9.48;100.00;96990.16;5074080;28;20264;-77
2023/03/31 07:08:17;;;;;;;11.10;6.60;;;;;;;9.52;100.00;96996.84;5073988;28;20233;-77
2023/03/31 07:10:45;;;;;;;9.53;6.67;;;;;;;9.51;100.00;97003.06;5073674;28;20215;-76
2023/03/31 07:13:12;;;;;;;10.80;5.47;;;;;;;9.54;100.00;96987.03;5073982;28;20223;-76
2023/03/31 07:15:39;;;;;;;11.70;6.10;;;;;;;9.52;100.00;96981.88;5073855;28;20218;-77
2023/03/31 07:18:08;;;;;;;10.67;6.17;;;;;;;9.49;100.00;96983.91;5074037;28;20213;-77
2023/03/31 07:20:36;;;;;;;9.93;5.20;;;;;;;9.52;100.00;96883.44;5073575;28;20590;-77
2023/03/31 07:23:04;;;;;;;9.23;6.33;;;;;;;9.50;100.00;96880.09;5073821;28;20597;-77
2023/03/31 07:25:31;;;;;;;7.00;4.67;;;;;;;9.57;100.00;96886.53;5073369;28;20207;-76
2023/03/31 07:27:58;;;;;;;10.60;5.27;;;;;;;9.58;100.00;96875.84;5075250;28;20680;-77
2023/03/31 07:30:24;;;;;;;10.50;4.73;;;;;;;9.60;100.00;96879.19;5096363;28;20267;-77
2023/03/31 07:32:53;;;;;;;7.53;4.60;;;;;;;9.64;100.00;96892.94;5095730;28;20281;-78
2023/03/31 07:35:22;;;;;;;11.47;4.17;;;;;;;9.68;100.00;96894.38;5092844;28;20207;-76
2023/03/31 07:37:51;;;;;;;7.07;4.40;;;;;;;9.70;100.00;96893.28;5072898;28;20214;-76
2023/03/31 07:40:20;;;;;;;8.03;5.00;;;;;;;9.77;100.00;96893.56;5070483;28;20944;-77
2023/03/31 07:42:47;;;;;;;5.37;4.10;;;;;;;9.85;100.00;96885.84;5071503;28;20738;-76
2023/03/31 07:45:15;;;;;;;3.33;2.90;;;;;;;9.84;100.00;96898.19;5072351;28;20210;-76
2023/03/31 07:47:43;;;;;;;3.00;2.70;;;;;;;9.79;100.00;96891.66;5070035;28;20209;-76
2023/03/31 07:50:10;;;;;;;3.13;2.27;;;;;;;9.79;100.00;96889.03;5071393;28;20218;-76
2023/03/31 07:52:38;;;;;;;3.30;2.33;;;;;;;9.92;100.00;96887.00;5073069;28;20240;-76
2023/03/31 07:55:05;;;;;;;5.30;2.57;;;;;;;10.15;100.00;96885.88;5072903;28;20580;-76
2023/03/31 07:57:32;;;;;;;3.27;2.10;;;;;;;10.25;100.00;96879.66;5073251;28;20230;-77
2023/03/31 07:59:58;;;;;;;2.57;1.60;;;;;;;10.22;100.00;96879.09;5070760;28;20240;-77
2023/03/31 08:02:25;;;;;;;3.40;2.13;;;;;;;10.22;100.00;96873.81;5070099;28;20230;-76
2023/03/31 08:04:52;;;;;;;2.30;1.80;;;;;;;10.36;100.00;96878.72;5072993;28;20772;-77
2023/03/31 08:07:18;;;;;;;3.93;1.50;;;;;;;10.51;100.00;96886.09;5072823;28;20669;-76
2023/03/31 08:09:46;;;;;;;1.90;1.50;;;;;;;10.67;100.00;96880.28;5072442;28;20214;-76
2023/03/31 08:12:14;;;;;;;1.73;1.30;;;;;;;10.79;100.00;96884.50;5072911;28;20270;-78
2023/03/31 08:14:40;;;;;;;1.70;0.90;;;;;;;10.89;100.00;96875.59;5072590;28;20245;-77
2023/03/31 08:17:07;;;;;;;2.10;1.30;;;;;;;11.03;100.00;96869.06;5072731;28;20209;-77
2023/03/31 08:19:33;;;;;;;2.03;1.20;;;;;;;11.13;100.00;96873.38;5072108;28;20228;-75
2023/03/31 08:22:00;;;;;;;1.60;1.30;;;;;;;11.28;100.00;96866.69;5072446;28;20245;-74
2023/03/31 08:24:26;;;;;;;2.00;1.10;;;;;;;11.35;100.00;96866.94;5072618;28;20207;-75
2023/03/31 08:26:54;;;;;;;1.40;1.27;;;;;;;11.57;100.00;96858.69;5072765;28;20582;-76
2023/03/31 08:29:21;;;;;;;1.43;1.10;;;;;;;11.61;100.00;96862.78;5072128;28;20205;-76
2023/03/31 08:31:47;;;;;;;3.23;1.33;;;;;;;11.81;100.00;96867.03;5072454;28;20218;-76
2023/03/31 08:34:14;;;;;;;4.93;1.37;;;;;;;11.95;100.00;96840.94;5072211;28;20674;-76
2023/03/31 08:36:41;;;;;;;4.43;1.33;;;;;;;12.02;100.00;96849.09;5072428;28;20215;-78
2023/03/31 08:39:08;;;;;;;3.20;1.33;;;;;;;12.22;100.00;96848.06;5071899;28;20235;-78
2023/03/31 08:41:44;;;;;;;3.83;1.10;;;;;;;12.37;100.00;96851.88;5072364;28;20211;-78
2023/03/31 08:44:17;;;;;;;3.23;1.43;;;;;;;12.49;100.00;96848.03;5071694;28;20529;-77
2023/03/31 08:46:44;;;;;;;2.23;1.13;;;;;;;12.49;100.00;96829.47;5071168;28;20449;-76
2023/03/31 08:49:15;;;;;;;1.70;1.17;;;;;;;12.50;98.16;96828.50;5070294;28;20203;-77
2023/03/31 08:51:46;;;;;;;1.83;1.10;;;;;;;12.56;98.96;96835.84;5071415;28;20214;-77
2023/03/31 08:54:17;;;;;;;3.60;1.20;;;;;;;12.68;100.00;96829.34;5071398;28;20215;-77
2023/03/31 08:56:48;;;;;;;4.13;1.20;;;;;;;12.76;99.99;96843.53;5070860;28;20666;-77
2023/03/31 08:59:26;;;;;;;1.77;1.00;;;;;;;12.84;99.63;96848.91;5070760;28;20234;-77
2023/03/31 09:01:58;;;;;;;1.30;1.13;;;;;;;12.93;96.32;96832.09;5070895;28;20240;-78
2023/03/31 09:04:46;;;;;;;1.80;0.90;;;;;;;13.22;100.00;96850.44;5071005;28;20209;-75
2023/03/31 09:07:20;;;;;;;2.27;1.30;;;;;;;13.45;97.83;96825.09;5070968;28;20211;-75
2023/03/31 09:09:56;;;;;;;3.20;1.30;;;;;;;13.62;95.81;96821.56;5070951;28;20205;-75
2023/03/31 09:12:30;;;;;;;8.03;1.60;;;;;;;13.73;93.76;96813.31;5071718;28;20242;-77
2023/03/31 09:15:01;;;;;;;3.50;1.20;;;;;;;13.65;87.29;96789.38;5069499;28;20222;-76
2023/03/31 09:17:30;;;;;;;6.90;1.67;;;;;;;13.46;82.41;96781.66;5070788;28;20678;-76
2023/03/31 09:20:00;;;;;;;4.00;1.40;;;;;;;13.62;85.89;96792.38;5070648;28;20227;-78
2023/03/31 09:22:31;;;;;;;2.60;1.00;;;;;;;13.72;81.90;96779.81;5070508;28;20367;-77
2023/03/31 09:25:01;;;;;;;2.63;0.90;;;;;;;13.79;79.20;96748.97;5070705;28;20722;-77
2023/03/31 09:27:33;;;;;;;3.40;1.37;;;;;;;13.91;75.86;96747.69;5071041;28;20219;-77
2023/03/31 09:30:04;;;;;;;2.50;0.90;;;;;;;13.94;78.40;96774.75;5070346;28;20211;-77
2023/03/31 09:32:32;;;;;;;2.83;1.20;;;;;;;14.08;76.70;96760.03;5070483;28;20717;-76
2023/03/31 09:35:01;;;;;;;2.50;1.00;;;;;;;14.16;73.11;96752.09;5070246;28;20208;-77
2023/03/31 09:37:32;;;;;;;5.37;1.40;;;;;;;14.25;74.64;96762.63;5070497;28;20260;-77
2023/03/31 09:40:01;;;;;;;2.80;1.20;;;;;;;14.22;69.69;96752.34;5070244;28;20232;-78
2023/03/31 09:42:27;;;;;;;2.83;1.27;;;;;;;14.31;73.67;96777.09;5070608;28;20337;-76
2023/03/31 09:44:54;;;;;;;3.17;1.00;;;;;;;14.47;70.25;96763.84;5070164;28;20207;-76
2023/03/31 09:47:31;;;;;;;3.87;1.20;;;;;;;14.17;65.73;96719.25;5070271;28;20205;-75
2023/03/31 09:49:58;;;;;;;4.20;1.17;;;;;;;14.09;68.17;96741.31;5070428;28;20214;-77
2023/03/31 09:52:29;;;;;;;3.57;1.10;;;;;;;14.37;68.80;96745.38;5070192;28;20281;-77
2023/03/31 09:55:00;;;;;;;6.27;2.00;;;;;;;14.73;71.21;96751.28;5070076;28;20223;-76
2023/03/31 09:57:28;;;;;;;5.23;1.50;;;;;;;14.77;66.08;96723.34;5070244;28;20219;-76
2023/03/31 10:00:04;;;;;;;5.03;1.27;;;;;;;14.80;65.21;96715.84;5069891;28;20255;-75
2023/03/31 10:02:39;;;;;;;5.10;1.40;;;;;;;14.64;62.14;96693.75;5070425;28;20234;-76
2023/03/31 10:05:08;;;;;;;2.80;1.53;;;;;;;14.73;66.06;96727.34;5070318;28;20240;-78
2023/03/31 10:07:35;;;;;;;4.23;1.17;;;;;;;14.87;61.98;96692.09;5070346;28;20208;-77
2023/03/31 10:10:03;;;;;;;3.77;1.20;;;;;;;14.89;62.58;96704.22;5069937;28;20213;-78
2023/03/31 10:12:31;;;;;;;4.17;1.30;;;;;;;14.78;62.21;96695.78;5070399;28;20260;-77
2023/03/31 10:15:18;;;;;;;6.07;1.77;;;;;;;14.93;60.76;96684.28;5073790;28;20204;-78
2023/03/31 10:17:47;;;;;;;4.57;0.90;;;;;;;15.22;64.72;96711.16;5073238;28;20215;-78
2023/03/31 10:20:32;;;;;;;4.87;1.37;;;;;;;15.44;62.34;96697.19;5072652;28;20230;-78
2023/03/31 10:23:03;;;;;;;4.23;1.40;;;;;;;15.62;64.81;96696.97;5073841;28;20233;-77
2023/03/31 10:25:32;;;;;;;5.60;1.60;;;;;;;15.71;59.68;96664.00;5073702;28;20209;-77
2023/03/31 10:28:02;;;;;;;4.17;1.20;;;;;;;15.50;61.41;96682.34;5074040;28;20712;-76
2023/03/31 10:30:36;;;;;;;4.00;1.20;;;;;;;15.20;61.48;96680.41;5073731;28;20207;-76
2023/03/31 10:33:07;;;;;;;5.07;1.50;;;;;;;15.51;60.85;96679.53;5073827;28;20229;-78
2023/03/31 10:35:36;;;;;;;4.80;1.00;;;;;;;15.83;60.48;96660.75;5073763;28;20801;-77
2023/03/31 10:38:06;;;;;;;2.60;1.00;;;;;;;15.84;59.35;96648.28;5073906;28;20214;-76
2023/03/31 10:40:35;;;;;;;6.93;1.60;;;;;;;15.86;59.41;96651.59;5073455;28;20230;-77
2023/03/31 10:43:06;;;;;;;4.93;1.30;;;;;;;15.92;59.35;96629.56;5073791;28;20284;-77
2023/03/31 10:45:38;;;;;;;4.27;1.23;;;;;;;16.04;63.64;96677.81;5073327;28;20207;-76
2023/03/31 10:48:16;;;;;;;5.10;1.20;;;;;;;16.00;58.60;96634.88;5073894;28;20608;-78
2023/03/31 10:50:44;;;;;;;2.70;1.10;;;;;;;15.77;60.88;96652.66;5073333;28;20201;-77
2023/03/31 10:53:12;;;;;;;2.50;1.33;;;;;;;15.60;60.59;96656.38;5073653;28;20235;-75
2023/03/31 10:55:46;;;;;;;4.37;1.40;;;;;;;15.37;59.97;96636.81;5073278;28;20299;-75
2023/03/31 10:58:26;;;;;;;3.43;1.20;;;;;;;15.18;59.57;96640.69;5073443;28;20216;-77
2023/03/31 11:01:05;;;;;;;5.87;1.30;;;;;;;15.12;57.13;96597.94;5079946;28;20248;-76
2023/03/31 11:03:50;;;;;;;4.70;2.10;;;;;;;15.08;57.04;96599.28;5096770;28;20235;-77
2023/03/31 11:06:25;;;;;;;4.03;1.17;;;;;;;15.09;57.98;96611.59;5096678;28;20239;-77
2023/03/31 11:09:03;;;;;;;4.97;1.50;;;;;;;15.09;58.61;96604.44;5079733;28;20224;-76
2023/03/31 11:11:43;;;;;;;3.83;1.10;;;;;;;15.15;58.01;96602.94;5072927;28;20194;-76
2023/03/31 11:14:18;;;;;;;5.43;1.57;;;;;;;15.00;60.33;96637.38;5073175;28;20855;-76
2023/03/31 11:16:51;;;;;;;2.70;1.23;;;;;;;14.62;65.36;96661.19;5073163;28;20209;-76
2023/03/31 11:19:33;;;;;;;3.80;0.97;;;;;;;14.29;67.91;96688.75;5072856;28;20213;-76
2023/03/31 11:22:09;;;;;;;4.30;1.17;;;;;;;14.06;69.88;96732.81;5073008;28;20230;-76
2023/03/31 11:25:04;;;;;;;6.50;1.70;;;;;;;13.48;82.19;96796.44;5071498;28;20250;-76
2023/03/31 11:27:43;;;;;;;5.93;1.37;;;;;;;12.07;90.87;96838.91;5072711;28;20608;-76
2023/03/31 11:30:15;;;;;;;7.93;1.00;;;;;;;11.04;98.32;96836.34;5072688;28;20696;-75
2023/03/31 11:32:52;;;;;;;2.87;0.93;;;;;;;10.43;100.00;96851.63;5072599;28;20575;-76
2023/03/31 11:35:37;;;;;;;1.87;0.80;;;;;;;10.30;100.00;96839.63;5072671;28;20209;-76
2023/03/31 11:38:18;;;;;;;1.00;0.40;;;;;;;10.23;100.00;96851.72;5072584;28;20218;-76
2023/03/31 11:40:59;;;;;;;1.97;0.80;;;;;;;10.21;100.00;96849.19;5072253;28;20245;-76
2023/03/31 11:43:32;;;;;;;0.70;0.50;;;;;;;10.28;100.00;96852.16;5088013;22;20242;-77
2023/03/31 11:46:03;;;;;;;1.90;0.70;;;;;;;10.38;100.00;96860.91;5074497;28;20526;-76